createdAt,value
2019-05-16T00:01:38.666Z,86.70
2019-05-16T00:04:08.764Z,83.33
2019-05-16T00:06:39.034Z,84.21
2019-05-16T00:09:08.621Z,81.56
2019-05-16T00:11:38.552Z,81.17
2019-05-16T00:14:08.432Z,81.52
2019-05-16T00:16:38.163Z,80.46
2019-05-16T00:19:09.123Z,81.77
2019-05-16T00:21:38.611Z,81.00
2019-05-16T00:24:08.330Z,81.86
2019-05-16T00:26:38.827Z,85.09
2019-05-16T00:29:08.304Z,82.84
2019-05-16T00:31:38.283Z,80.76
2019-05-16T00:34:09.624Z,79.48
2019-05-16T00:36:38.657Z,78.64
2019-05-16T00:39:08.473Z,79.10
2019-05-16T00:41:38.566Z,81.50
2019-05-16T00:44:08.548Z,79.80
2019-05-16T00:46:38.612Z,82.54
2019-05-16T00:49:08.446Z,81.10
2019-05-16T00:51:38.173Z,81.11
2019-05-16T00:54:08.217Z,88.03
2019-05-16T00:56:38.507Z,85.38
2019-05-16T00:59:08.760Z,88.07
2019-05-16T01:01:38.974Z,89.42
2019-05-16T01:04:08.486Z,88.29
2019-05-16T01:06:40.971Z,85.63
2019-05-16T01:09:10.299Z,84.49
2019-05-16T01:11:39.915Z,84.40
2019-05-16T01:14:09.246Z,86.19
2019-05-16T01:16:38.912Z,90.75
2019-05-16T01:19:08.668Z,90.90
2019-05-16T01:21:39.084Z,90.92
2019-05-16T01:24:08.721Z,89.59
2019-05-16T01:26:39.181Z,90.40
2019-05-16T01:29:11.638Z,89.01
2019-05-16T01:31:39.688Z,90.85
2019-05-16T01:34:09.019Z,88.90
2019-05-16T01:36:40.849Z,87.27
2019-05-16T01:39:09.687Z,91.55
2019-05-16T01:41:39.015Z,87.64
2019-05-16T01:44:08.346Z,89.05
2019-05-16T01:46:39.036Z,92.85
2019-05-16T01:49:08.596Z,94.20
2019-05-16T01:51:38.126Z,92.20
2019-05-16T01:54:08.685Z,88.73
2019-05-16T01:56:38.793Z,89.73
2019-05-16T01:59:08.944Z,88.65
2019-05-16T02:01:38.418Z,91.78
2019-05-16T02:04:11.849Z,91.37
2019-05-16T02:06:51.001Z,89.40
2019-05-16T02:09:11.467Z,90.93
2019-05-16T02:11:41.090Z,91.05
2019-05-16T02:14:10.414Z,94.23
2019-05-16T02:16:39.734Z,92.97
2019-05-16T02:19:09.143Z,90.17
2019-05-16T02:21:38.958Z,89.42
2019-05-16T02:24:08.858Z,89.69
2019-05-16T02:26:38.711Z,91.48
2019-05-16T02:29:10.346Z,91.46
2019-05-16T02:31:42.214Z,95.32
2019-05-16T02:34:11.830Z,91.47
2019-05-16T02:36:41.227Z,90.61
2019-05-16T02:39:11.419Z,94.65
2019-05-16T02:41:45.639Z,92.76
2019-05-16T02:44:12.339Z,90.67
2019-05-16T02:46:42.098Z,93.32
2019-05-16T02:49:11.949Z,96.53
2019-05-16T02:51:41.243Z,90.69
2019-05-16T02:54:11.145Z,94.92
2019-05-16T02:56:41.730Z,93.29
2019-05-16T02:59:12.049Z,96.72
2019-05-16T03:01:41.514Z,92.78
2019-05-16T03:04:11.274Z,96.57
2019-05-16T03:06:41.441Z,92.66
2019-05-16T03:09:11.446Z,96.07
2019-05-16T03:11:42.304Z,93.75
2019-05-16T03:14:14.067Z,94.86
2019-05-16T03:16:46.600Z,96.44
2019-05-16T03:19:21.416Z,94.64
2019-05-16T03:21:50.955Z,97.54
2019-05-16T03:24:20.656Z,92.58
2019-05-16T03:26:51.483Z,97.09
2019-05-16T03:29:21.878Z,95.17
2019-05-16T03:31:54.284Z,95.37
2019-05-16T03:34:25.643Z,98.75
2019-05-16T03:36:54.604Z,94.04
2019-05-16T03:39:24.425Z,99.57
2019-05-16T03:41:53.749Z,99.12
2019-05-16T03:44:23.090Z,98.79
2019-05-16T03:46:52.413Z,95.87
2019-05-16T03:49:21.751Z,98.87
2019-05-16T03:51:51.094Z,99.67
2019-05-16T03:54:21.146Z,99.85
2019-05-16T03:56:51.469Z,97.57
2019-05-16T03:59:21.571Z,99.93
2019-05-16T04:01:51.294Z,99.92
2019-05-16T04:04:21.166Z,99.52
2019-05-16T04:06:50.905Z,100.00
2019-05-16T04:09:21.106Z,96.86
2019-05-16T04:11:51.035Z,94.58
2019-05-16T04:14:21.419Z,97.09
2019-05-16T04:16:51.237Z,97.93
2019-05-16T04:19:21.252Z,99.03
2019-05-16T04:21:51.208Z,97.99
2019-05-16T04:24:21.649Z,95.14
2019-05-16T04:26:51.766Z,97.22
2019-05-16T04:29:21.396Z,100.00
2019-05-16T04:31:51.078Z,96.61
2019-05-16T04:34:20.877Z,92.01
2019-05-16T04:36:51.369Z,88.61
2019-05-16T04:39:21.117Z,87.21
2019-05-16T04:41:51.008Z,87.36
2019-05-16T04:44:21.282Z,86.83
2019-05-16T04:46:51.276Z,88.25
2019-05-16T04:49:21.333Z,90.03
2019-05-16T04:51:51.824Z,86.91
2019-05-16T04:54:21.759Z,87.58
2019-05-16T04:56:51.627Z,89.40
2019-05-16T04:59:21.104Z,87.75
2019-05-16T05:01:51.310Z,85.32
2019-05-16T05:04:21.296Z,84.25
2019-05-16T05:06:51.416Z,84.67
2019-05-16T05:09:21.187Z,87.02
2019-05-16T05:11:51.974Z,85.28
2019-05-16T05:14:21.644Z,84.52
2019-05-16T05:16:50.965Z,89.02
2019-05-16T05:19:20.424Z,90.84
2019-05-16T05:21:51.455Z,90.82
2019-05-16T05:24:20.977Z,84.50
2019-05-16T05:26:50.499Z,85.07
2019-05-16T05:29:20.182Z,90.63
2019-05-16T05:31:55.000Z,86.26
2019-05-16T05:34:20.899Z,85.80
2019-05-16T05:36:51.185Z,84.22
2019-05-16T05:39:20.742Z,88.30
2019-05-16T05:41:50.569Z,84.89
2019-05-16T05:44:20.498Z,86.14
2019-05-16T05:46:51.223Z,84.55
2019-05-16T05:49:20.707Z,85.65
2019-05-16T05:51:50.208Z,84.52
2019-05-16T05:54:20.403Z,89.10
2019-05-16T05:56:50.194Z,87.25
2019-05-16T05:59:20.259Z,87.05
2019-05-16T06:01:51.639Z,87.56
2019-05-16T06:04:20.632Z,87.88
2019-05-16T06:06:50.496Z,88.35
2019-05-16T06:09:28.540Z,86.40
2019-05-16T06:11:50.904Z,88.70
2019-05-16T06:14:21.336Z,85.49
2019-05-16T06:16:51.035Z,84.82
2019-05-16T06:19:20.536Z,86.04
2019-05-16T06:21:50.402Z,84.93
2019-05-16T06:24:20.390Z,88.92
2019-05-16T06:26:50.487Z,88.27
2019-05-16T06:29:20.470Z,86.68
2019-05-16T06:31:49.979Z,89.23
2019-05-16T06:34:21.008Z,90.21
2019-05-16T06:37:09.939Z,86.73
2019-05-16T06:39:44.635Z,84.92
2019-05-16T06:42:30.048Z,85.84
2019-05-16T06:45:10.365Z,87.32
2019-05-16T06:47:46.306Z,86.05
2019-05-16T06:53:50.163Z,87.62
2019-05-16T06:56:26.363Z,87.89
2019-05-16T06:58:55.701Z,82.93
2019-05-16T07:01:25.023Z,81.66
2019-05-16T07:03:54.356Z,86.06
2019-05-16T07:06:47.394Z,86.29
2019-05-16T07:09:13.811Z,86.21
2019-05-16T07:11:43.151Z,87.12
2019-05-16T07:14:31.576Z,81.99
2019-05-16T07:17:00.933Z,81.26
2019-05-16T07:19:30.519Z,82.52
2019-05-16T07:22:01.328Z,83.68
2019-05-16T07:24:30.765Z,82.01
2019-05-16T07:27:00.411Z,84.45
2019-05-16T07:29:30.875Z,80.47
2019-05-16T07:32:01.326Z,82.39
2019-05-16T07:34:31.277Z,81.46
2019-05-16T07:37:00.712Z,78.45
2019-05-16T07:39:30.637Z,81.81
2019-05-16T07:42:00.274Z,84.07
2019-05-16T07:44:31.052Z,84.74
2019-05-16T07:47:01.210Z,80.50
2019-05-16T07:49:31.039Z,79.46
2019-05-16T07:52:00.722Z,80.89
2019-05-16T07:54:34.273Z,81.42
2019-05-16T07:57:12.240Z,81.11
2019-05-16T07:59:32.188Z,81.32
2019-05-16T08:02:01.599Z,78.92
2019-05-16T08:04:30.934Z,75.90
2019-05-16T08:07:00.797Z,76.07
2019-05-16T08:09:30.754Z,79.63
2019-05-16T08:12:02.267Z,80.08
2019-05-16T08:14:34.932Z,77.11
2019-05-16T08:17:02.534Z,76.35
2019-05-16T08:19:31.888Z,78.95
2019-05-16T08:22:01.557Z,79.83
2019-05-16T08:24:35.572Z,79.61
2019-05-16T08:27:01.993Z,76.82
2019-05-16T08:29:31.797Z,78.52
2019-05-16T08:32:02.100Z,77.26
2019-05-16T08:34:32.358Z,78.90
2019-05-16T08:37:01.882Z,81.23
2019-05-16T08:39:31.396Z,79.06
2019-05-16T08:42:08.173Z,75.19
2019-05-16T08:44:32.579Z,80.92
2019-05-16T08:47:06.072Z,79.31
2019-05-16T08:49:33.204Z,80.40
2019-05-16T08:52:02.504Z,79.78
2019-05-16T08:54:32.139Z,79.28
2019-05-16T08:57:17.532Z,74.69
2019-05-16T08:59:33.973Z,72.10
2019-05-16T09:02:03.626Z,72.96
2019-05-16T09:04:34.126Z,73.41
2019-05-16T09:07:04.122Z,75.85
2019-05-16T09:09:42.524Z,77.15
2019-05-16T09:12:04.589Z,71.99
2019-05-16T09:14:38.067Z,73.26
2019-05-16T09:17:07.451Z,69.99
2019-05-16T09:19:36.931Z,70.49
2019-05-16T09:22:07.436Z,71.04
2019-05-16T09:24:37.685Z,71.81
2019-05-16T09:27:12.036Z,75.21
2019-05-16T09:29:38.503Z,72.34
2019-05-16T09:32:16.607Z,69.82
2019-05-16T09:34:38.873Z,68.88
2019-05-16T09:37:08.684Z,68.88
2019-05-16T09:39:38.041Z,66.52
2019-05-16T09:42:08.316Z,66.45
2019-05-16T09:44:37.690Z,65.10
2019-05-16T09:47:07.691Z,68.55
2019-05-16T09:49:37.422Z,68.55
2019-05-16T09:52:07.515Z,69.69
2019-05-16T09:54:37.959Z,69.69
2019-05-16T09:57:07.352Z,63.92
2019-05-16T09:59:37.188Z,66.59
2019-05-16T10:02:07.359Z,66.16
2019-05-16T10:04:37.189Z,65.04
2019-05-16T10:07:06.812Z,66.04
2019-05-16T10:09:41.959Z,66.75
2019-05-16T10:12:14.985Z,65.10
2019-05-16T10:14:38.392Z,62.30
2019-05-16T10:17:08.220Z,63.50
2019-05-16T10:19:37.904Z,67.78
2019-05-16T10:22:07.534Z,70.75
2019-05-16T10:24:37.511Z,68.56
2019-05-16T10:27:07.012Z,67.57
2019-05-16T10:29:37.979Z,67.57
2019-05-16T10:32:07.754Z,66.32
2019-05-16T10:34:37.223Z,67.78
2019-05-16T10:37:06.554Z,69.15
2019-05-16T10:39:37.380Z,65.77
2019-05-16T10:42:06.987Z,67.69
2019-05-16T10:44:38.565Z,62.15
2019-05-16T10:47:07.681Z,64.50
2019-05-16T10:49:41.402Z,64.66
2019-05-16T10:52:08.254Z,64.02
2019-05-16T10:54:46.463Z,64.02
2019-05-16T10:57:08.684Z,63.97
2019-05-16T10:59:57.787Z,63.97
2019-05-16T11:02:09.127Z,64.13
2019-05-16T11:04:53.696Z,64.13
2019-05-16T11:07:09.595Z,63.71
2019-05-16T11:09:39.374Z,66.41
2019-05-16T11:12:08.868Z,66.41
2019-05-16T11:14:38.196Z,64.15
2019-05-16T11:17:13.387Z,63.25
2019-05-16T11:19:38.576Z,63.25
2019-05-16T11:22:07.907Z,61.91
2019-05-16T11:24:37.823Z,61.91
2019-05-16T11:27:07.631Z,65.21
2019-05-16T11:29:36.980Z,62.07
2019-05-16T11:32:07.097Z,59.84
2019-05-16T11:34:37.446Z,61.09
2019-05-16T11:37:07.140Z,60.96
2019-05-16T11:39:37.132Z,60.35
2019-05-16T11:42:08.010Z,61.36
2019-05-16T11:44:38.307Z,61.36
2019-05-16T11:47:08.485Z,62.89
2019-05-16T11:49:37.929Z,63.77
2019-05-16T11:52:07.632Z,61.60
2019-05-16T11:54:37.543Z,62.93
2019-05-16T11:57:07.277Z,66.07
2019-05-16T11:59:37.477Z,66.07
2019-05-16T12:02:06.977Z,64.16
2019-05-16T12:04:37.463Z,62.75
2019-05-16T12:07:07.584Z,62.18
2019-05-16T12:09:47.162Z,62.68
2019-05-16T12:12:08.845Z,62.68
2019-05-16T12:14:38.316Z,62.21
2019-05-16T12:17:07.679Z,62.21
2019-05-16T12:19:43.505Z,59.58
2019-05-16T12:22:08.084Z,60.65
2019-05-16T12:24:41.305Z,58.55
2019-05-16T12:27:08.715Z,58.55
2019-05-16T12:29:38.043Z,58.26
2019-05-16T12:32:07.913Z,58.79
2019-05-16T12:34:37.702Z,60.41
2019-05-16T12:37:07.587Z,62.02
2019-05-16T12:39:37.907Z,62.02
2019-05-16T12:42:08.349Z,63.15
2019-05-16T12:44:37.999Z,60.79
2019-05-16T12:47:07.762Z,63.11
2019-05-16T12:49:37.494Z,58.70
2019-05-16T12:52:06.986Z,59.46
2019-05-16T12:54:37.044Z,58.76
2019-05-16T12:57:06.604Z,57.95
2019-05-16T12:59:36.813Z,56.81
2019-05-16T13:02:07.617Z,59.08
2019-05-16T13:04:37.814Z,59.71
2019-05-16T13:07:09.305Z,60.07
2019-05-16T13:09:38.278Z,58.88
2019-05-16T13:12:07.621Z,58.48
2019-05-16T13:14:40.107Z,59.57
2019-05-16T13:17:08.125Z,59.23
2019-05-16T13:19:44.220Z,57.56
2019-05-16T13:22:13.657Z,57.88
2019-05-16T13:24:43.007Z,56.99
2019-05-16T13:27:12.329Z,55.15
2019-05-16T13:29:41.671Z,58.27
2019-05-16T13:32:11.070Z,57.66
2019-05-16T13:34:40.407Z,59.59
2019-05-16T13:37:09.751Z,55.82
2019-05-16T13:39:39.078Z,54.70
2019-05-16T13:42:08.483Z,56.42
2019-05-16T13:44:37.872Z,58.68
2019-05-16T13:47:07.668Z,59.53
2019-05-16T13:49:43.915Z,57.50
2019-05-16T13:52:13.244Z,58.78
2019-05-16T13:54:42.572Z,56.88
2019-05-16T13:57:11.914Z,54.66
2019-05-16T13:59:41.242Z,58.11
2019-05-16T14:02:10.583Z,58.28
2019-05-16T14:04:39.909Z,57.67
2019-05-16T14:07:09.236Z,58.15
2019-05-16T14:09:38.575Z,57.59
2019-05-16T14:12:07.902Z,55.75
2019-05-16T14:14:42.066Z,59.20
2019-05-16T14:17:15.411Z,56.98
2019-05-16T14:19:50.479Z,57.39
2019-05-16T14:22:21.454Z,58.58
2019-05-16T14:24:50.786Z,57.73
2019-05-16T14:27:20.123Z,56.76
2019-05-16T14:29:49.763Z,55.98
2019-05-16T14:32:20.061Z,54.32
2019-05-16T14:35:09.381Z,56.13
2019-05-16T14:37:38.686Z,57.75
2019-05-16T14:40:50.318Z,53.68
2019-05-16T14:43:24.147Z,55.40
2019-05-16T14:45:53.486Z,56.64
2019-05-16T14:48:22.818Z,55.13
2019-05-16T14:50:52.144Z,57.70
2019-05-16T14:53:21.485Z,60.81
2019-05-16T14:55:50.822Z,61.81
2019-05-16T14:58:20.161Z,58.22
2019-05-16T15:00:49.604Z,61.08
2019-05-16T15:03:18.984Z,61.58
2019-05-16T15:05:49.095Z,60.02
2019-05-16T15:08:18.450Z,58.71
2019-05-16T15:10:47.840Z,59.08
2019-05-16T15:13:18.825Z,60.04
2019-05-16T15:15:48.183Z,60.06
2019-05-16T15:18:17.954Z,59.07
2019-05-16T15:21:08.765Z,57.89
2019-05-16T15:23:48.201Z,59.28
2019-05-16T15:26:18.390Z,57.31
2019-05-16T15:29:08.308Z,58.92
2019-05-16T15:31:46.559Z,60.29
2019-05-16T15:34:20.791Z,59.94
2019-05-16T15:36:50.147Z,61.16
2019-05-16T15:39:19.475Z,61.24
2019-05-16T15:41:48.799Z,61.02
2019-05-16T15:44:18.135Z,58.68
2019-05-16T15:46:48.011Z,59.39
2019-05-16T15:49:17.450Z,60.71
2019-05-16T15:51:47.823Z,61.10
2019-05-16T15:54:22.925Z,61.97
2019-05-16T15:56:52.324Z,60.15
2019-05-16T15:59:21.722Z,62.27
2019-05-16T16:01:51.088Z,60.29
2019-05-16T16:04:20.388Z,61.17
2019-05-16T16:06:49.719Z,58.62
2019-05-16T16:09:19.067Z,60.23
2019-05-16T16:11:48.794Z,58.62
2019-05-16T16:14:18.204Z,60.84
2019-05-16T16:16:47.539Z,61.17
2019-05-16T16:19:17.502Z,61.39
2019-05-16T16:21:47.395Z,61.86
2019-05-16T16:24:19.102Z,64.18
2019-05-16T16:26:47.979Z,62.12
2019-05-16T16:29:17.280Z,62.51
2019-05-16T16:31:47.656Z,62.66
2019-05-16T16:34:17.691Z,62.32
2019-05-16T16:36:47.664Z,62.09
2019-05-16T16:39:17.126Z,62.78
2019-05-16T16:41:47.859Z,62.26
2019-05-16T16:44:18.044Z,62.62
2019-05-16T16:46:47.559Z,63.27
2019-05-16T16:49:17.406Z,63.27
2019-05-16T16:51:48.081Z,62.11
2019-05-16T16:54:17.613Z,63.90
2019-05-16T16:56:47.445Z,63.53
2019-05-16T16:59:17.422Z,63.51
2019-05-16T17:01:47.199Z,63.51
2019-05-16T17:04:17.427Z,64.17
2019-05-16T17:06:47.127Z,65.82
2019-05-16T17:09:16.747Z,65.68
2019-05-16T17:11:46.615Z,64.45
2019-05-16T17:14:17.337Z,63.55
2019-05-16T17:16:47.424Z,65.00
2019-05-16T17:19:16.822Z,65.26
2019-05-16T17:21:55.027Z,65.26
2019-05-16T17:24:17.206Z,66.77
2019-05-16T17:26:47.834Z,66.65
2019-05-16T17:29:18.267Z,66.38
2019-05-16T17:31:55.578Z,66.38
2019-05-16T17:34:18.653Z,66.58
2019-05-16T17:36:47.974Z,65.56
2019-05-16T17:39:18.283Z,64.90
2019-05-16T17:41:54.397Z,64.90
2019-05-16T17:44:18.763Z,67.35
2019-05-16T17:46:48.110Z,66.73
2019-05-16T17:49:18.291Z,66.73
2019-05-16T17:51:47.819Z,67.71
2019-05-16T17:54:17.408Z,68.83
2019-05-16T17:56:46.904Z,68.83
2019-05-16T17:59:17.050Z,68.29
2019-05-16T18:01:46.870Z,68.29
2019-05-16T18:04:17.209Z,68.71
2019-05-16T18:06:47.248Z,68.71
2019-05-16T18:09:17.143Z,68.32
2019-05-16T18:11:46.885Z,68.32
2019-05-16T18:14:17.154Z,70.08
2019-05-16T18:16:53.742Z,68.43
2019-05-16T18:19:17.798Z,68.43
2019-05-16T18:21:47.117Z,66.55
2019-05-16T18:24:16.809Z,68.27
2019-05-16T18:26:46.163Z,68.99
2019-05-16T18:29:16.347Z,68.37
2019-05-16T18:31:47.162Z,67.74
2019-05-16T18:34:17.008Z,67.45
2019-05-16T18:36:46.755Z,68.53
2019-05-16T18:39:16.456Z,68.53
2019-05-16T18:41:47.212Z,68.58
2019-05-16T18:44:16.853Z,68.23
2019-05-16T18:46:47.120Z,68.12
2019-05-16T18:49:16.598Z,68.85
2019-05-16T18:51:46.520Z,68.85
2019-05-16T18:54:17.308Z,68.33
2019-05-16T18:56:47.391Z,68.20
2019-05-16T18:59:17.018Z,68.20
2019-05-16T19:01:46.987Z,67.01
2019-05-16T19:04:17.515Z,68.84
2019-05-16T19:06:48.459Z,68.07
2019-05-16T19:09:17.868Z,67.31
2019-05-16T19:11:47.204Z,67.31
2019-05-16T19:14:17.031Z,68.13
2019-05-16T19:16:48.937Z,68.93
2019-05-16T19:19:17.616Z,68.93
2019-05-16T19:21:46.966Z,68.73
2019-05-16T19:24:16.549Z,68.80
2019-05-16T19:26:47.136Z,68.85
2019-05-16T19:29:17.392Z,70.11
2019-05-16T19:31:50.289Z,70.14
2019-05-16T19:34:18.093Z,70.14
2019-05-16T19:36:47.428Z,69.55
2019-05-16T19:39:17.798Z,69.55
2019-05-16T19:41:47.160Z,70.19
2019-05-16T19:44:16.899Z,70.19
2019-05-16T19:46:46.990Z,71.47
2019-05-16T19:49:16.719Z,71.47
2019-05-16T19:51:48.854Z,71.18
2019-05-16T19:54:17.094Z,72.83
2019-05-16T19:56:46.896Z,71.98
2019-05-16T19:59:16.942Z,72.44
2019-05-16T20:01:46.537Z,72.09
2019-05-16T20:04:18.308Z,73.49
2019-05-16T20:06:47.524Z,72.26
2019-05-16T20:09:16.852Z,72.26
2019-05-16T20:11:46.429Z,74.76
2019-05-16T20:14:16.951Z,74.76
2019-05-16T20:16:47.195Z,76.98
2019-05-16T20:19:16.530Z,77.10
2019-05-16T20:21:47.606Z,75.69
2019-05-16T20:24:17.081Z,75.77
2019-05-16T20:26:46.613Z,77.73
2019-05-16T20:29:17.024Z,77.73
2019-05-16T20:31:47.516Z,76.75
2019-05-16T20:34:17.720Z,79.41
2019-05-16T20:36:47.146Z,83.63
2019-05-16T20:39:17.390Z,84.17
2019-05-16T20:41:47.556Z,84.17
2019-05-16T20:44:17.419Z,87.40
2019-05-16T20:46:49.611Z,87.47
2019-05-16T20:49:17.889Z,88.80
2019-05-16T20:51:50.136Z,90.80
2019-05-16T20:54:19.816Z,92.31
2019-05-16T20:56:49.463Z,92.52
2019-05-16T20:59:18.957Z,93.00
2019-05-16T21:01:49.253Z,93.35
2019-05-16T21:04:19.701Z,93.99
2019-05-16T21:07:00.439Z,95.08
2019-05-16T21:09:21.342Z,96.10
2019-05-16T21:12:08.492Z,96.66
2019-05-16T21:14:37.842Z,97.64
2019-05-16T21:17:07.412Z,98.13
2019-05-16T21:19:39.266Z,99.11
2019-05-16T21:22:08.025Z,99.22
2019-05-16T21:24:37.481Z,98.54
2019-05-16T21:27:06.783Z,98.96
2019-05-16T21:29:36.905Z,100.00
2019-05-16T21:32:07.441Z,100.00
2019-05-16T21:34:36.915Z,100.00
2019-05-16T21:37:14.537Z,100.00
2019-05-16T21:39:37.546Z,100.00
2019-05-16T21:42:07.632Z,100.00
2019-05-16T21:44:37.467Z,100.00
2019-05-16T21:47:06.953Z,100.00
2019-05-16T21:49:36.984Z,100.00
2019-05-16T21:52:06.419Z,100.00
2019-05-16T21:54:36.784Z,100.00
2019-05-16T21:57:06.209Z,100.00
2019-05-16T21:59:37.587Z,100.00
2019-05-16T22:02:07.296Z,100.00
2019-05-16T22:04:36.903Z,100.00
2019-05-16T22:07:07.249Z,100.00
2019-05-16T22:09:37.179Z,100.00
2019-05-16T22:12:06.848Z,100.00
2019-05-16T22:14:42.396Z,100.00
2019-05-16T22:17:11.729Z,100.00
2019-05-16T22:19:41.076Z,100.00
2019-05-16T22:22:10.481Z,100.00
2019-05-16T22:24:39.829Z,100.00
2019-05-16T22:27:10.164Z,100.00
2019-05-16T22:29:39.577Z,100.00
2019-05-16T22:32:09.378Z,100.00
2019-05-16T22:34:38.834Z,100.00
2019-05-16T22:37:08.165Z,100.00
2019-05-16T22:39:37.514Z,100.00
2019-05-16T22:42:09.260Z,100.00
2019-05-16T22:44:38.126Z,100.00
2019-05-16T22:47:08.244Z,100.00
2019-05-16T22:49:37.617Z,100.00
2019-05-16T22:52:06.959Z,100.00
2019-05-16T22:54:37.026Z,100.00
2019-05-16T22:57:06.816Z,100.00
2019-05-16T22:59:36.217Z,100.00
2019-05-16T23:02:11.771Z,100.00
2019-05-16T23:04:38.072Z,100.00
2019-05-16T23:07:07.786Z,100.00
2019-05-16T23:09:37.119Z,100.00
2019-05-16T23:12:07.069Z,100.00
2019-05-16T23:14:36.463Z,100.00
2019-05-16T23:17:06.776Z,100.00
2019-05-16T23:19:36.718Z,100.00
2019-05-16T23:22:08.417Z,100.00
2019-05-16T23:24:38.059Z,100.00
2019-05-16T23:27:07.395Z,100.00
2019-05-16T23:29:36.945Z,100.00
2019-05-16T23:32:07.419Z,100.00
2019-05-16T23:34:37.460Z,100.00
2019-05-16T23:37:06.915Z,100.00
2019-05-16T23:39:37.916Z,100.00
2019-05-16T23:42:07.404Z,100.00
2019-05-16T23:44:36.793Z,100.00
2019-05-16T23:47:07.045Z,100.00
2019-05-16T23:49:36.902Z,100.00
2019-05-16T23:52:07.472Z,100.00
2019-05-16T23:54:37.028Z,100.00
2019-05-16T23:57:06.714Z,100.00
2019-05-16T23:59:36.930Z,100.00
